sensor_id;sensor_type;location;lat;lon;timestamp;P1;durP1;ratioP1;P2;durP2;ratioP2
11034;SDS011;5571;48.110;-1.706;2023-02-03T00:01:18;6.87;;;2.43;;
11034;SDS011;5571;48.110;-1.706;2023-02-03T00:03:45;5.60;;;2.27;;
11034;SDS011;5571;48.110;-1.706;2023-02-03T00:06:11;7.73;;;2.40;;
11034;SDS011;5571;48.110;-1.706;2023-02-03T00:08:38;4.53;;;2.10;;
11034;SDS011;5571;48.110;-1.706;2023-02-03T00:11:03;3.67;;;2.10;;
11034;SDS011;5571;48.110;-1.706;2023-02-03T00:13:29;4.57;;;2.00;;
11034;SDS011;5571;48.110;-1.706;2023-02-03T00:15:55;3.93;;;2.00;;
11034;SDS011;5571;48.110;-1.706;2023-02-03T00:18:21;4.80;;;2.27;;
11034;SDS011;5571;48.110;-1.706;2023-02-03T00:20:46;4.27;;;2.23;;
11034;SDS011;5571;48.110;-1.706;2023-02-03T00:23:12;3.97;;;2.03;;
11034;SDS011;5571;48.110;-1.706;2023-02-03T00:25:39;4.10;;;2.17;;
11034;SDS011;5571;48.110;-1.706;2023-02-03T00:28:10;4.83;;;2.17;;
11034;SDS011;5571;48.110;-1.706;2023-02-03T00:30:37;4.67;;;2.00;;
11034;SDS011;5571;48.110;-1.706;2023-02-03T00:33:03;5.10;;;2.10;;
11034;SDS011;5571;48.110;-1.706;2023-02-03T00:35:29;4.47;;;2.07;;
11034;SDS011;5571;48.110;-1.706;2023-02-03T00:37:55;3.30;;;1.93;;
11034;SDS011;5571;48.110;-1.706;2023-02-03T00:40:23;6.37;;;2.10;;
11034;SDS011;5571;48.110;-1.706;2023-02-03T00:42:54;3.40;;;1.77;;
11034;SDS011;5571;48.110;-1.706;2023-02-03T00:45:20;4.97;;;2.13;;
11034;SDS011;5571;48.110;-1.706;2023-02-03T00:47:46;5.77;;;2.07;;
11034;SDS011;5571;48.110;-1.706;2023-02-03T00:50:12;6.13;;;2.40;;
11034;SDS011;5571;48.110;-1.706;2023-02-03T00:52:38;9.23;;;2.30;;
11034;SDS011;5571;48.110;-1.706;2023-02-03T00:55:04;4.50;;;2.10;;
11034;SDS011;5571;48.110;-1.706;2023-02-03T00:57:30;6.27;;;2.30;;
11034;SDS011;5571;48.110;-1.706;2023-02-03T00:59:56;4.33;;;2.00;;
11034;SDS011;5571;48.110;-1.706;2023-02-03T01:02:22;4.07;;;2.23;;
11034;SDS011;5571;48.110;-1.706;2023-02-03T01:04:49;5.30;;;2.40;;
11034;SDS011;5571;48.110;-1.706;2023-02-03T01:07:14;2.80;;;1.80;;
11034;SDS011;5571;48.110;-1.706;2023-02-03T01:09:40;3.83;;;2.10;;
11034;SDS011;5571;48.110;-1.706;2023-02-03T01:12:06;4.23;;;2.10;;
11034;SDS011;5571;48.110;-1.706;2023-02-03T01:14:32;4.23;;;2.00;;
11034;SDS011;5571;48.110;-1.706;2023-02-03T01:16:58;4.60;;;2.27;;
11034;SDS011;5571;48.110;-1.706;2023-02-03T01:19:24;3.53;;;1.87;;
11034;SDS011;5571;48.110;-1.706;2023-02-03T01:21:50;4.63;;;2.27;;
11034;SDS011;5571;48.110;-1.706;2023-02-03T01:24:15;11.23;;;2.13;;
11034;SDS011;5571;48.110;-1.706;2023-02-03T01:26:41;4.10;;;1.93;;
11034;SDS011;5571;48.110;-1.706;2023-02-03T01:29:07;5.97;;;2.00;;
11034;SDS011;5571;48.110;-1.706;2023-02-03T01:31:34;2.43;;;1.80;;
11034;SDS011;5571;48.110;-1.706;2023-02-03T01:34:04;4.27;;;1.90;;
11034;SDS011;5571;48.110;-1.706;2023-02-03T01:36:35;4.93;;;2.20;;
11034;SDS011;5571;48.110;-1.706;2023-02-03T01:39:01;2.83;;;1.93;;
11034;SDS011;5571;48.110;-1.706;2023-02-03T01:41:29;2.23;;;1.80;;
11034;SDS011;5571;48.110;-1.706;2023-02-03T01:43:58;5.33;;;2.20;;
11034;SDS011;5571;48.110;-1.706;2023-02-03T01:46:35;2.17;;;1.90;;
11034;SDS011;5571;48.110;-1.706;2023-02-03T01:51:38;3.67;;;2.67;;
11034;SDS011;5571;48.110;-1.706;2023-02-03T01:54:07;21.33;;;14.90;;
11034;SDS011;5571;48.110;-1.706;2023-02-03T01:56:38;9.80;;;6.40;;
11034;SDS011;5571;48.110;-1.706;2023-02-03T01:59:07;12.73;;;7.57;;
11034;SDS011;5571;48.110;-1.706;2023-02-03T02:01:33;8.83;;;4.90;;
11034;SDS011;5571;48.110;-1.706;2023-02-03T02:04:01;6.40;;;5.00;;
11034;SDS011;5571;48.110;-1.706;2023-02-03T02:06:28;7.33;;;4.60;;
11034;SDS011;5571;48.110;-1.706;2023-02-03T02:08:54;7.43;;;3.17;;
11034;SDS011;5571;48.110;-1.706;2023-02-03T02:11:23;7.77;;;2.70;;
11034;SDS011;5571;48.110;-1.706;2023-02-03T02:13:49;4.07;;;1.90;;
11034;SDS011;5571;48.110;-1.706;2023-02-03T02:16:23;4.03;;;1.90;;
11034;SDS011;5571;48.110;-1.706;2023-02-03T02:22:03;5.47;;;1.90;;
11034;SDS011;5571;48.110;-1.706;2023-02-03T02:39:08;3.97;;;1.90;;
11034;SDS011;5571;48.110;-1.706;2023-02-03T02:41:55;3.43;;;1.70;;
11034;SDS011;5571;48.110;-1.706;2023-02-03T02:44:32;4.63;;;1.67;;
11034;SDS011;5571;48.110;-1.706;2023-02-03T02:47:04;3.77;;;1.70;;
11034;SDS011;5571;48.110;-1.706;2023-02-03T02:49:38;5.40;;;1.97;;
11034;SDS011;5571;48.110;-1.706;2023-02-03T02:52:11;2.97;;;1.50;;
11034;SDS011;5571;48.110;-1.706;2023-02-03T02:54:39;6.53;;;2.00;;
11034;SDS011;5571;48.110;-1.706;2023-02-03T02:57:09;3.40;;;1.90;;
11034;SDS011;5571;48.110;-1.706;2023-02-03T02:59:37;3.07;;;1.40;;
11034;SDS011;5571;48.110;-1.706;2023-02-03T03:02:03;2.73;;;1.70;;
11034;SDS011;5571;48.110;-1.706;2023-02-03T03:04:29;2.83;;;1.50;;
11034;SDS011;5571;48.110;-1.706;2023-02-03T03:07:01;3.67;;;2.07;;
11034;SDS011;5571;48.110;-1.706;2023-02-03T03:14:34;5.43;;;1.73;;
11034;SDS011;5571;48.110;-1.706;2023-02-03T03:17:05;2.27;;;1.53;;
11034;SDS011;5571;48.110;-1.706;2023-02-03T03:19:36;3.07;;;1.57;;
11034;SDS011;5571;48.110;-1.706;2023-02-03T03:22:06;2.03;;;1.80;;
11034;SDS011;5571;48.110;-1.706;2023-02-03T03:24:46;2.90;;;1.50;;
11034;SDS011;5571;48.110;-1.706;2023-02-03T03:27:17;2.67;;;1.60;;
11034;SDS011;5571;48.110;-1.706;2023-02-03T03:32:22;2.10;;;1.50;;
11034;SDS011;5571;48.110;-1.706;2023-02-03T03:34:48;2.47;;;1.23;;
11034;SDS011;5571;48.110;-1.706;2023-02-03T03:37:19;2.60;;;1.63;;
11034;SDS011;5571;48.110;-1.706;2023-02-03T03:39:54;4.23;;;1.53;;
11034;SDS011;5571;48.110;-1.706;2023-02-03T03:42:26;3.63;;;1.50;;
11034;SDS011;5571;48.110;-1.706;2023-02-03T03:50:19;5.00;;;1.77;;
11034;SDS011;5571;48.110;-1.706;2023-02-03T03:52:49;4.97;;;1.90;;
11034;SDS011;5571;48.110;-1.706;2023-02-03T03:55:17;2.23;;;1.40;;
11034;SDS011;5571;48.110;-1.706;2023-02-03T03:57:50;1.90;;;1.40;;
11034;SDS011;5571;48.110;-1.706;2023-02-03T04:00:20;3.53;;;1.40;;
11034;SDS011;5571;48.110;-1.706;2023-02-03T04:02:53;5.53;;;1.60;;
11034;SDS011;5571;48.110;-1.706;2023-02-03T04:05:21;4.07;;;1.70;;
11034;SDS011;5571;48.110;-1.706;2023-02-03T04:07:48;1.93;;;1.30;;
11034;SDS011;5571;48.110;-1.706;2023-02-03T04:10:20;2.50;;;1.30;;
11034;SDS011;5571;48.110;-1.706;2023-02-03T04:12:46;5.07;;;1.67;;
11034;SDS011;5571;48.110;-1.706;2023-02-03T04:15:12;4.07;;;1.60;;
11034;SDS011;5571;48.110;-1.706;2023-02-03T04:17:37;1.93;;;1.23;;
11034;SDS011;5571;48.110;-1.706;2023-02-03T04:20:03;1.83;;;1.37;;
11034;SDS011;5571;48.110;-1.706;2023-02-03T04:22:29;3.03;;;1.57;;
11034;SDS011;5571;48.110;-1.706;2023-02-03T04:24:55;5.80;;;1.60;;
11034;SDS011;5571;48.110;-1.706;2023-02-03T04:27:23;4.00;;;1.67;;
11034;SDS011;5571;48.110;-1.706;2023-02-03T04:29:49;3.13;;;1.57;;
11034;SDS011;5571;48.110;-1.706;2023-02-03T04:32:15;2.73;;;1.40;;
11034;SDS011;5571;48.110;-1.706;2023-02-03T04:34:41;3.50;;;1.53;;
11034;SDS011;5571;48.110;-1.706;2023-02-03T04:37:06;1.83;;;1.33;;
11034;SDS011;5571;48.110;-1.706;2023-02-03T04:39:32;2.97;;;1.80;;
11034;SDS011;5571;48.110;-1.706;2023-02-03T04:41:58;3.50;;;1.50;;
11034;SDS011;5571;48.110;-1.706;2023-02-03T04:44:23;1.93;;;1.47;;
11034;SDS011;5571;48.110;-1.706;2023-02-03T04:46:49;3.47;;;1.40;;
11034;SDS011;5571;48.110;-1.706;2023-02-03T04:49:14;3.07;;;1.90;;
11034;SDS011;5571;48.110;-1.706;2023-02-03T04:51:41;3.00;;;1.50;;
11034;SDS011;5571;48.110;-1.706;2023-02-03T04:54:08;3.77;;;1.80;;
11034;SDS011;5571;48.110;-1.706;2023-02-03T04:56:34;1.47;;;1.20;;
11034;SDS011;5571;48.110;-1.706;2023-02-03T04:59:00;3.27;;;1.50;;
11034;SDS011;5571;48.110;-1.706;2023-02-03T05:01:25;2.87;;;1.50;;
11034;SDS011;5571;48.110;-1.706;2023-02-03T05:03:51;3.07;;;1.47;;
11034;SDS011;5571;48.110;-1.706;2023-02-03T05:06:21;2.90;;;1.37;;
11034;SDS011;5571;48.110;-1.706;2023-02-03T05:08:51;3.90;;;1.70;;
11034;SDS011;5571;48.110;-1.706;2023-02-03T05:11:17;3.30;;;1.60;;
11034;SDS011;5571;48.110;-1.706;2023-02-03T05:13:43;2.67;;;1.53;;
11034;SDS011;5571;48.110;-1.706;2023-02-03T05:16:08;2.53;;;1.60;;
11034;SDS011;5571;48.110;-1.706;2023-02-03T05:18:34;3.70;;;1.60;;
11034;SDS011;5571;48.110;-1.706;2023-02-03T05:20:59;2.93;;;1.70;;
11034;SDS011;5571;48.110;-1.706;2023-02-03T05:23:25;3.37;;;1.27;;
11034;SDS011;5571;48.110;-1.706;2023-02-03T05:25:51;3.23;;;1.47;;
11034;SDS011;5571;48.110;-1.706;2023-02-03T05:28:16;2.27;;;1.37;;
11034;SDS011;5571;48.110;-1.706;2023-02-03T05:30:42;2.50;;;1.47;;
11034;SDS011;5571;48.110;-1.706;2023-02-03T05:33:08;2.93;;;1.63;;
11034;SDS011;5571;48.110;-1.706;2023-02-03T05:35:33;2.13;;;1.47;;
11034;SDS011;5571;48.110;-1.706;2023-02-03T05:37:59;3.00;;;1.47;;
11034;SDS011;5571;48.110;-1.706;2023-02-03T05:40:25;2.50;;;1.80;;
11034;SDS011;5571;48.110;-1.706;2023-02-03T05:43:10;5.50;;;2.13;;
11034;SDS011;5571;48.110;-1.706;2023-02-03T05:45:36;2.50;;;1.30;;
11034;SDS011;5571;48.110;-1.706;2023-02-03T05:48:03;1.70;;;1.53;;
11034;SDS011;5571;48.110;-1.706;2023-02-03T05:50:29;4.67;;;1.40;;
11034;SDS011;5571;48.110;-1.706;2023-02-03T05:53:02;2.77;;;1.47;;
11034;SDS011;5571;48.110;-1.706;2023-02-03T05:55:29;4.37;;;1.53;;
11034;SDS011;5571;48.110;-1.706;2023-02-03T05:57:55;2.13;;;1.50;;
11034;SDS011;5571;48.110;-1.706;2023-02-03T06:00:22;2.63;;;1.67;;
11034;SDS011;5571;48.110;-1.706;2023-02-03T06:02:52;3.90;;;1.70;;
11034;SDS011;5571;48.110;-1.706;2023-02-03T06:05:23;3.40;;;1.43;;
11034;SDS011;5571;48.110;-1.706;2023-02-03T06:07:50;5.67;;;1.60;;
11034;SDS011;5571;48.110;-1.706;2023-02-03T06:10:16;2.80;;;1.50;;
11034;SDS011;5571;48.110;-1.706;2023-02-03T06:12:42;3.80;;;1.50;;
11034;SDS011;5571;48.110;-1.706;2023-02-03T06:15:08;8.60;;;2.80;;
11034;SDS011;5571;48.110;-1.706;2023-02-03T06:17:34;3.07;;;1.70;;
11034;SDS011;5571;48.110;-1.706;2023-02-03T06:20:04;1.90;;;1.67;;
11034;SDS011;5571;48.110;-1.706;2023-02-03T06:22:31;1.97;;;1.60;;
11034;SDS011;5571;48.110;-1.706;2023-02-03T06:24:57;5.57;;;1.60;;
11034;SDS011;5571;48.110;-1.706;2023-02-03T06:27:22;5.90;;;1.93;;
11034;SDS011;5571;48.110;-1.706;2023-02-03T06:29:48;2.57;;;1.80;;
11034;SDS011;5571;48.110;-1.706;2023-02-03T06:32:14;4.57;;;1.63;;
11034;SDS011;5571;48.110;-1.706;2023-02-03T06:34:40;3.33;;;1.70;;
11034;SDS011;5571;48.110;-1.706;2023-02-03T06:37:06;4.80;;;1.50;;
11034;SDS011;5571;48.110;-1.706;2023-02-03T06:39:31;5.53;;;1.80;;
11034;SDS011;5571;48.110;-1.706;2023-02-03T06:41:57;3.33;;;1.77;;
11034;SDS011;5571;48.110;-1.706;2023-02-03T06:44:23;3.63;;;1.83;;
11034;SDS011;5571;48.110;-1.706;2023-02-03T06:46:48;4.83;;;1.90;;
11034;SDS011;5571;48.110;-1.706;2023-02-03T06:49:15;5.23;;;1.60;;
11034;SDS011;5571;48.110;-1.706;2023-02-03T06:51:44;3.27;;;1.73;;
11034;SDS011;5571;48.110;-1.706;2023-02-03T06:54:10;4.17;;;1.90;;
11034;SDS011;5571;48.110;-1.706;2023-02-03T06:56:37;3.23;;;1.70;;
11034;SDS011;5571;48.110;-1.706;2023-02-03T06:59:03;9.00;;;2.03;;
11034;SDS011;5571;48.110;-1.706;2023-02-03T07:01:29;1.70;;;1.60;;
11034;SDS011;5571;48.110;-1.706;2023-02-03T07:03:55;10.10;;;2.07;;
11034;SDS011;5571;48.110;-1.706;2023-02-03T07:06:25;5.30;;;1.70;;
11034;SDS011;5571;48.110;-1.706;2023-02-03T07:08:54;4.70;;;1.80;;
11034;SDS011;5571;48.110;-1.706;2023-02-03T07:11:20;5.73;;;1.60;;
11034;SDS011;5571;48.110;-1.706;2023-02-03T07:13:46;4.27;;;1.40;;
11034;SDS011;5571;48.110;-1.706;2023-02-03T07:16:12;5.37;;;2.93;;
11034;SDS011;5571;48.110;-1.706;2023-02-03T07:18:38;2.50;;;1.90;;
11034;SDS011;5571;48.110;-1.706;2023-02-03T07:21:04;4.40;;;1.73;;
11034;SDS011;5571;48.110;-1.706;2023-02-03T07:23:31;4.57;;;1.60;;
11034;SDS011;5571;48.110;-1.706;2023-02-03T07:26:00;4.47;;;1.77;;
11034;SDS011;5571;48.110;-1.706;2023-02-03T07:28:27;3.37;;;1.50;;
11034;SDS011;5571;48.110;-1.706;2023-02-03T07:30:52;5.77;;;1.80;;
11034;SDS011;5571;48.110;-1.706;2023-02-03T07:33:18;4.70;;;1.90;;
11034;SDS011;5571;48.110;-1.706;2023-02-03T07:35:50;4.40;;;2.30;;
11034;SDS011;5571;48.110;-1.706;2023-02-03T07:38:19;8.03;;;2.70;;
11034;SDS011;5571;48.110;-1.706;2023-02-03T07:40:46;9.23;;;2.80;;
11034;SDS011;5571;48.110;-1.706;2023-02-03T07:43:11;5.57;;;3.37;;
11034;SDS011;5571;48.110;-1.706;2023-02-03T07:45:37;6.33;;;3.27;;
11034;SDS011;5571;48.110;-1.706;2023-02-03T07:48:03;7.07;;;2.90;;
11034;SDS011;5571;48.110;-1.706;2023-02-03T07:50:28;4.27;;;2.33;;
11034;SDS011;5571;48.110;-1.706;2023-02-03T07:52:54;10.10;;;2.33;;
11034;SDS011;5571;48.110;-1.706;2023-02-03T07:55:20;7.60;;;1.97;;
11034;SDS011;5571;48.110;-1.706;2023-02-03T07:57:46;4.93;;;2.10;;
11034;SDS011;5571;48.110;-1.706;2023-02-03T08:00:12;10.73;;;2.23;;
11034;SDS011;5571;48.110;-1.706;2023-02-03T08:02:40;7.63;;;2.33;;
11034;SDS011;5571;48.110;-1.706;2023-02-03T08:05:06;9.07;;;2.20;;
11034;SDS011;5571;48.110;-1.706;2023-02-03T08:07:32;14.37;;;2.43;;
11034;SDS011;5571;48.110;-1.706;2023-02-03T08:09:57;7.30;;;2.60;;
11034;SDS011;5571;48.110;-1.706;2023-02-03T08:12:23;11.37;;;3.50;;
11034;SDS011;5571;48.110;-1.706;2023-02-03T08:14:49;7.53;;;2.50;;
11034;SDS011;5571;48.110;-1.706;2023-02-03T08:17:14;8.60;;;2.50;;
11034;SDS011;5571;48.110;-1.706;2023-02-03T08:19:40;6.90;;;2.43;;
11034;SDS011;5571;48.110;-1.706;2023-02-03T08:22:06;9.63;;;2.87;;
11034;SDS011;5571;48.110;-1.706;2023-02-03T08:24:31;8.40;;;2.50;;
11034;SDS011;5571;48.110;-1.706;2023-02-03T08:26:57;7.90;;;2.47;;
11034;SDS011;5571;48.110;-1.706;2023-02-03T08:29:23;3.27;;;2.40;;
11034;SDS011;5571;48.110;-1.706;2023-02-03T08:31:49;6.07;;;2.67;;
11034;SDS011;5571;48.110;-1.706;2023-02-03T08:34:14;7.23;;;2.33;;
11034;SDS011;5571;48.110;-1.706;2023-02-03T08:36:40;2.43;;;2.13;;
11034;SDS011;5571;48.110;-1.706;2023-02-03T08:39:07;9.27;;;2.60;;
11034;SDS011;5571;48.110;-1.706;2023-02-03T08:41:33;3.17;;;2.40;;
11034;SDS011;5571;48.110;-1.706;2023-02-03T08:43:59;3.88;;;2.67;;
11034;SDS011;5571;48.110;-1.706;2023-02-03T08:46:25;5.30;;;2.67;;
11034;SDS011;5571;48.110;-1.706;2023-02-03T08:48:52;6.37;;;2.43;;
11034;SDS011;5571;48.110;-1.706;2023-02-03T08:51:20;4.10;;;2.50;;
11034;SDS011;5571;48.110;-1.706;2023-02-03T08:53:46;6.13;;;2.60;;
11034;SDS011;5571;48.110;-1.706;2023-02-03T08:56:12;2.63;;;2.40;;
11034;SDS011;5571;48.110;-1.706;2023-02-03T08:58:38;6.07;;;2.70;;
11034;SDS011;5571;48.110;-1.706;2023-02-03T09:01:08;6.33;;;2.60;;
11034;SDS011;5571;48.110;-1.706;2023-02-03T09:03:35;7.47;;;3.10;;
11034;SDS011;5571;48.110;-1.706;2023-02-03T09:06:02;5.00;;;2.67;;
11034;SDS011;5571;48.110;-1.706;2023-02-03T09:08:28;7.33;;;3.07;;
11034;SDS011;5571;48.110;-1.706;2023-02-03T09:10:54;6.60;;;2.90;;
11034;SDS011;5571;48.110;-1.706;2023-02-03T09:13:20;6.67;;;3.20;;
11034;SDS011;5571;48.110;-1.706;2023-02-03T09:15:45;7.30;;;3.57;;
11034;SDS011;5571;48.110;-1.706;2023-02-03T09:18:11;7.83;;;3.53;;
11034;SDS011;5571;48.110;-1.706;2023-02-03T09:20:37;6.17;;;3.90;;
11034;SDS011;5571;48.110;-1.706;2023-02-03T09:23:02;7.07;;;3.53;;
11034;SDS011;5571;48.110;-1.706;2023-02-03T09:25:28;9.53;;;3.70;;
11034;SDS011;5571;48.110;-1.706;2023-02-03T09:27:53;6.17;;;3.47;;
11034;SDS011;5571;48.110;-1.706;2023-02-03T09:30:19;10.87;;;4.00;;
11034;SDS011;5571;48.110;-1.706;2023-02-03T09:32:45;6.93;;;3.60;;
11034;SDS011;5571;48.110;-1.706;2023-02-03T09:35:13;8.23;;;3.40;;
11034;SDS011;5571;48.110;-1.706;2023-02-03T09:37:39;9.67;;;3.63;;
11034;SDS011;5571;48.110;-1.706;2023-02-03T09:40:05;4.43;;;3.60;;
11034;SDS011;5571;48.110;-1.706;2023-02-03T09:42:48;4.43;;;3.70;;
11034;SDS011;5571;48.110;-1.706;2023-02-03T09:45:27;7.37;;;3.50;;
11034;SDS011;5571;48.110;-1.706;2023-02-03T09:47:56;6.23;;;3.63;;
11034;SDS011;5571;48.110;-1.706;2023-02-03T09:50:28;7.73;;;4.17;;
11034;SDS011;5571;48.110;-1.706;2023-02-03T09:52:57;13.13;;;4.20;;
11034;SDS011;5571;48.110;-1.706;2023-02-03T09:55:35;7.37;;;4.03;;
11034;SDS011;5571;48.110;-1.706;2023-02-03T10:00:52;7.37;;;4.10;;
11034;SDS011;5571;48.110;-1.706;2023-02-03T10:09:10;7.13;;;2.90;;
11034;SDS011;5571;48.110;-1.706;2023-02-03T10:12:14;5.37;;;2.97;;
11034;SDS011;5571;48.110;-1.706;2023-02-03T10:18:08;7.60;;;2.77;;
11034;SDS011;5571;48.110;-1.706;2023-02-03T10:20:39;6.53;;;2.73;;
11034;SDS011;5571;48.110;-1.706;2023-02-03T10:23:50;2.83;;;2.53;;
11034;SDS011;5571;48.110;-1.706;2023-02-03T10:26:00;7.83;;;2.90;;
11034;SDS011;5571;48.110;-1.706;2023-02-03T10:28:29;2.93;;;2.73;;
11034;SDS011;5571;48.110;-1.706;2023-02-03T10:31:00;5.87;;;2.37;;
11034;SDS011;5571;48.110;-1.706;2023-02-03T10:33:31;7.70;;;5.20;;
11034;SDS011;5571;48.110;-1.706;2023-02-03T10:41:18;6.73;;;3.03;;
11034;SDS011;5571;48.110;-1.706;2023-02-03T10:43:45;3.97;;;2.60;;
11034;SDS011;5571;48.110;-1.706;2023-02-03T10:49:03;4.97;;;2.20;;
11034;SDS011;5571;48.110;-1.706;2023-02-03T10:51:29;7.17;;;2.67;;
11034;SDS011;5571;48.110;-1.706;2023-02-03T10:54:00;3.17;;;2.00;;
11034;SDS011;5571;48.110;-1.706;2023-02-03T10:56:30;3.63;;;2.30;;
11034;SDS011;5571;48.110;-1.706;2023-02-03T10:58:59;2.00;;;1.80;;
11034;SDS011;5571;48.110;-1.706;2023-02-03T11:01:25;4.83;;;2.00;;
11034;SDS011;5571;48.110;-1.706;2023-02-03T11:06:20;5.57;;;2.83;;
11034;SDS011;5571;48.110;-1.706;2023-02-03T11:08:47;5.57;;;2.80;;
11034;SDS011;5571;48.110;-1.706;2023-02-03T11:11:34;2.77;;;2.03;;
11034;SDS011;5571;48.110;-1.706;2023-02-03T11:16:27;2.27;;;2.07;;
11034;SDS011;5571;48.110;-1.706;2023-02-03T11:18:59;3.13;;;2.10;;
11034;SDS011;5571;48.110;-1.706;2023-02-03T11:21:32;3.03;;;2.17;;
11034;SDS011;5571;48.110;-1.706;2023-02-03T11:24:20;2.90;;;1.93;;
11034;SDS011;5571;48.110;-1.706;2023-02-03T11:26:57;4.23;;;2.10;;
11034;SDS011;5571;48.110;-1.706;2023-02-03T11:29:35;2.33;;;1.80;;
11034;SDS011;5571;48.110;-1.706;2023-02-03T11:32:14;2.43;;;1.90;;
11034;SDS011;5571;48.110;-1.706;2023-02-03T11:35:03;1.80;;;1.60;;
11034;SDS011;5571;48.110;-1.706;2023-02-03T11:38:00;1.73;;;1.63;;
11034;SDS011;5571;48.110;-1.706;2023-02-03T11:40:27;1.80;;;1.70;;
11034;SDS011;5571;48.110;-1.706;2023-02-03T11:48:00;4.37;;;2.80;;
11034;SDS011;5571;48.110;-1.706;2023-02-03T11:53:28;2.10;;;1.90;;
11034;SDS011;5571;48.110;-1.706;2023-02-03T11:56:04;2.60;;;2.40;;
11034;SDS011;5571;48.110;-1.706;2023-02-03T11:58:39;2.77;;;1.87;;
11034;SDS011;5571;48.110;-1.706;2023-02-03T12:14:34;1.30;;;1.20;;
11034;SDS011;5571;48.110;-1.706;2023-02-03T12:17:22;1.63;;;1.17;;
11034;SDS011;5571;48.110;-1.706;2023-02-03T12:29:19;1.40;;;1.30;;
11034;SDS011;5571;48.110;-1.706;2023-02-03T12:31:52;2.70;;;1.20;;
11034;SDS011;5571;48.110;-1.706;2023-02-03T12:39:55;3.13;;;1.47;;
11034;SDS011;5571;48.110;-1.706;2023-02-03T12:42:36;7.00;;;1.63;;
11034;SDS011;5571;48.110;-1.706;2023-02-03T12:50:38;5.00;;;2.10;;
11034;SDS011;5571;48.110;-1.706;2023-02-03T12:53:38;3.73;;;2.50;;
11034;SDS011;5571;48.110;-1.706;2023-02-03T12:56:10;6.27;;;2.97;;
11034;SDS011;5571;48.110;-1.706;2023-02-03T12:58:40;3.93;;;2.67;;
11034;SDS011;5571;48.110;-1.706;2023-02-03T13:01:21;6.77;;;2.80;;
11034;SDS011;5571;48.110;-1.706;2023-02-03T13:04:14;2.70;;;2.50;;
11034;SDS011;5571;48.110;-1.706;2023-02-03T13:09:58;3.30;;;2.50;;
11034;SDS011;5571;48.110;-1.706;2023-02-03T13:12:48;3.87;;;2.93;;
11034;SDS011;5571;48.110;-1.706;2023-02-03T13:20:51;3.03;;;2.37;;
11034;SDS011;5571;48.110;-1.706;2023-02-03T13:23:18;2.90;;;2.60;;
11034;SDS011;5571;48.110;-1.706;2023-02-03T13:37:17;2.13;;;1.93;;
11034;SDS011;5571;48.110;-1.706;2023-02-03T13:40:14;4.10;;;2.10;;
11034;SDS011;5571;48.110;-1.706;2023-02-03T13:42:54;3.20;;;1.90;;
11034;SDS011;5571;48.110;-1.706;2023-02-03T13:45:28;2.80;;;1.63;;
11034;SDS011;5571;48.110;-1.706;2023-02-03T13:50:40;1.60;;;1.50;;
11034;SDS011;5571;48.110;-1.706;2023-02-03T13:53:19;1.67;;;1.57;;
11034;SDS011;5571;48.110;-1.706;2023-02-03T13:55:54;3.37;;;1.60;;
11034;SDS011;5571;48.110;-1.706;2023-02-03T13:58:24;1.13;;;1.13;;
11034;SDS011;5571;48.110;-1.706;2023-02-03T14:05:49;3.33;;;1.70;;
11034;SDS011;5571;48.110;-1.706;2023-02-03T14:13:58;1.70;;;1.60;;
11034;SDS011;5571;48.110;-1.706;2023-02-03T14:16:43;2.93;;;1.73;;
11034;SDS011;5571;48.110;-1.706;2023-02-03T14:19:12;4.13;;;2.20;;
11034;SDS011;5571;48.110;-1.706;2023-02-03T14:22:04;3.00;;;2.70;;
11034;SDS011;5571;48.110;-1.706;2023-02-03T14:24:37;2.77;;;2.57;;
11034;SDS011;5571;48.110;-1.706;2023-02-03T14:27:13;2.40;;;2.00;;
11034;SDS011;5571;48.110;-1.706;2023-02-03T14:29:45;3.70;;;2.10;;
11034;SDS011;5571;48.110;-1.706;2023-02-03T14:32:33;2.33;;;1.70;;
11034;SDS011;5571;48.110;-1.706;2023-02-03T14:35:19;1.37;;;1.30;;
11034;SDS011;5571;48.110;-1.706;2023-02-03T14:38:00;2.10;;;1.33;;
11034;SDS011;5571;48.110;-1.706;2023-02-03T14:52:13;3.30;;;1.47;;
11034;SDS011;5571;48.110;-1.706;2023-02-03T14:55:10;1.80;;;1.40;;
11034;SDS011;5571;48.110;-1.706;2023-02-03T14:57:58;2.77;;;1.80;;
11034;SDS011;5571;48.110;-1.706;2023-02-03T15:00:31;2.87;;;1.70;;
11034;SDS011;5571;48.110;-1.706;2023-02-03T15:05:34;2.47;;;1.73;;
11034;SDS011;5571;48.110;-1.706;2023-02-03T15:08:02;2.33;;;1.70;;
11034;SDS011;5571;48.110;-1.706;2023-02-03T15:13:03;2.10;;;1.90;;
11034;SDS011;5571;48.110;-1.706;2023-02-03T15:15:29;4.10;;;2.10;;
11034;SDS011;5571;48.110;-1.706;2023-02-03T15:17:58;2.90;;;1.97;;
11034;SDS011;5571;48.110;-1.706;2023-02-03T15:20:44;2.20;;;2.03;;
11034;SDS011;5571;48.110;-1.706;2023-02-03T15:23:18;3.40;;;1.93;;
11034;SDS011;5571;48.110;-1.706;2023-02-03T15:25:51;1.97;;;1.80;;
11034;SDS011;5571;48.110;-1.706;2023-02-03T15:28:21;3.77;;;2.00;;
11034;SDS011;5571;48.110;-1.706;2023-02-03T15:30:50;2.00;;;1.80;;
11034;SDS011;5571;48.110;-1.706;2023-02-03T15:33:36;6.03;;;2.10;;
11034;SDS011;5571;48.110;-1.706;2023-02-03T15:36:14;2.87;;;2.03;;
11034;SDS011;5571;48.110;-1.706;2023-02-03T15:38:54;1.90;;;1.80;;
11034;SDS011;5571;48.110;-1.706;2023-02-03T15:41:30;3.97;;;1.80;;
11034;SDS011;5571;48.110;-1.706;2023-02-03T15:44:01;2.27;;;1.50;;
11034;SDS011;5571;48.110;-1.706;2023-02-03T15:46:43;2.47;;;2.20;;
11034;SDS011;5571;48.110;-1.706;2023-02-03T15:49:15;2.73;;;2.20;;
11034;SDS011;5571;48.110;-1.706;2023-02-03T15:51:47;3.10;;;2.00;;
11034;SDS011;5571;48.110;-1.706;2023-02-03T15:54:20;3.33;;;2.47;;
11034;SDS011;5571;48.110;-1.706;2023-02-03T15:56:55;4.87;;;2.80;;
11034;SDS011;5571;48.110;-1.706;2023-02-03T15:59:35;3.40;;;2.77;;
11034;SDS011;5571;48.110;-1.706;2023-02-03T16:02:14;4.10;;;3.07;;
11034;SDS011;5571;48.110;-1.706;2023-02-03T16:04:42;8.40;;;3.20;;
11034;SDS011;5571;48.110;-1.706;2023-02-03T16:07:15;5.80;;;3.80;;
11034;SDS011;5571;48.110;-1.706;2023-02-03T16:09:46;5.37;;;3.33;;
11034;SDS011;5571;48.110;-1.706;2023-02-03T16:12:26;4.60;;;3.10;;
11034;SDS011;5571;48.110;-1.706;2023-02-03T16:14:54;3.30;;;2.80;;
11034;SDS011;5571;48.110;-1.706;2023-02-03T16:19:47;4.50;;;3.27;;
11034;SDS011;5571;48.110;-1.706;2023-02-03T16:22:28;7.17;;;4.00;;
11034;SDS011;5571;48.110;-1.706;2023-02-03T16:24:56;4.33;;;3.77;;
11034;SDS011;5571;48.110;-1.706;2023-02-03T16:29:54;5.80;;;3.03;;
11034;SDS011;5571;48.110;-1.706;2023-02-03T16:33:09;2.40;;;2.20;;
11034;SDS011;5571;48.110;-1.706;2023-02-03T16:36:11;2.50;;;2.30;;
11034;SDS011;5571;48.110;-1.706;2023-02-03T16:38:57;5.40;;;2.30;;
11034;SDS011;5571;48.110;-1.706;2023-02-03T16:41:44;2.40;;;2.10;;
11034;SDS011;5571;48.110;-1.706;2023-02-03T16:44:29;5.20;;;2.10;;
11034;SDS011;5571;48.110;-1.706;2023-02-03T16:47:23;2.00;;;1.90;;
11034;SDS011;5571;48.110;-1.706;2023-02-03T16:50:13;3.13;;;2.07;;
11034;SDS011;5571;48.110;-1.706;2023-02-03T16:52:57;2.57;;;2.10;;
11034;SDS011;5571;48.110;-1.706;2023-02-03T16:55:23;3.73;;;2.80;;
11034;SDS011;5571;48.110;-1.706;2023-02-03T16:57:49;4.50;;;2.60;;
11034;SDS011;5571;48.110;-1.706;2023-02-03T17:00:15;2.40;;;2.20;;
11034;SDS011;5571;48.110;-1.706;2023-02-03T17:02:41;3.20;;;2.30;;
11034;SDS011;5571;48.110;-1.706;2023-02-03T17:05:07;7.20;;;2.40;;
11034;SDS011;5571;48.110;-1.706;2023-02-03T17:07:33;2.73;;;2.20;;
11034;SDS011;5571;48.110;-1.706;2023-02-03T17:09:58;4.73;;;2.40;;
11034;SDS011;5571;48.110;-1.706;2023-02-03T17:12:24;2.33;;;2.13;;
11034;SDS011;5571;48.110;-1.706;2023-02-03T17:14:54;5.00;;;2.37;;
11034;SDS011;5571;48.110;-1.706;2023-02-03T17:17:21;4.53;;;2.23;;
11034;SDS011;5571;48.110;-1.706;2023-02-03T17:19:47;4.00;;;2.13;;
11034;SDS011;5571;48.110;-1.706;2023-02-03T17:22:12;2.63;;;2.10;;
11034;SDS011;5571;48.110;-1.706;2023-02-03T17:24:38;4.03;;;2.37;;
11034;SDS011;5571;48.110;-1.706;2023-02-03T17:27:04;4.07;;;2.27;;
11034;SDS011;5571;48.110;-1.706;2023-02-03T17:29:29;4.27;;;2.20;;
11034;SDS011;5571;48.110;-1.706;2023-02-03T17:31:55;2.43;;;2.10;;
11034;SDS011;5571;48.110;-1.706;2023-02-03T17:34:20;2.33;;;2.13;;
11034;SDS011;5571;48.110;-1.706;2023-02-03T17:36:46;1.97;;;1.87;;
11034;SDS011;5571;48.110;-1.706;2023-02-03T17:39:11;3.07;;;2.73;;
11034;SDS011;5571;48.110;-1.706;2023-02-03T17:41:37;2.80;;;2.33;;